createdAt,value
2023-04-07T00:01:02.948Z,4.89
2023-04-07T00:03:30.798Z,4.84
2023-04-07T00:05:58.414Z,4.62
2023-04-07T00:08:25.721Z,4.70
2023-04-07T00:10:53.260Z,4.49
2023-04-07T00:13:20.446Z,4.65
2023-04-07T00:15:48.055Z,4.72
2023-04-07T00:18:15.273Z,4.75
2023-04-07T00:20:42.728Z,4.70
2023-04-07T00:23:09.924Z,4.90
2023-04-07T00:25:37.510Z,4.74
2023-04-07T00:28:04.923Z,4.67
2023-04-07T00:30:32.441Z,4.61
2023-04-07T00:32:59.747Z,4.85
2023-04-07T00:35:27.354Z,4.91
2023-04-07T00:37:54.572Z,4.84
2023-04-07T00:40:22.819Z,4.94
2023-04-07T00:42:50.033Z,5.04
2023-04-07T00:45:17.503Z,4.96
2023-04-07T00:47:44.836Z,5.02
2023-04-07T00:50:12.552Z,4.84
2023-04-07T00:52:40.501Z,5.00
2023-04-07T00:55:08.419Z,5.10
2023-04-07T00:57:35.923Z,5.04
2023-04-07T01:00:06.844Z,5.07
2023-04-07T01:02:43.621Z,5.12
2023-04-07T01:05:20.602Z,5.16
2023-04-07T01:08:15.065Z,5.21
2023-04-07T01:10:52.174Z,5.16
2023-04-07T01:13:34.479Z,5.15
2023-04-07T01:16:13.411Z,5.15
2023-04-07T01:18:51.111Z,4.98
2023-04-07T01:21:19.800Z,5.04
2023-04-07T01:24:13.348Z,5.14
2023-04-07T01:26:42.402Z,5.14
2023-04-07T01:29:34.202Z,4.97
2023-04-07T01:32:06.371Z,5.10
2023-04-07T01:34:35.231Z,4.90
2023-04-07T01:37:03.054Z,4.94
2023-04-07T01:39:30.790Z,4.99
2023-04-07T01:41:59.316Z,4.86
2023-04-07T01:44:27.617Z,4.85
2023-04-07T01:46:57.237Z,4.97
2023-04-07T01:49:27.243Z,4.88
2023-04-07T01:51:55.402Z,4.91
2023-04-07T01:54:23.513Z,4.85
2023-04-07T01:56:51.187Z,5.00
2023-04-07T01:59:18.486Z,5.01
2023-04-07T02:01:47.131Z,5.04
2023-04-07T02:04:27.032Z,4.78
2023-04-07T02:07:06.384Z,4.77
2023-04-07T02:09:42.542Z,4.88
2023-04-07T02:12:13.070Z,4.87
2023-04-07T02:14:45.815Z,4.88
2023-04-07T02:17:16.812Z,5.06
2023-04-07T02:19:47.032Z,5.10
2023-04-07T02:22:16.603Z,4.92
2023-04-07T02:24:43.928Z,4.82
2023-04-07T02:27:11.534Z,4.90
2023-04-07T02:29:38.796Z,5.06
2023-04-07T02:32:06.913Z,4.88
2023-04-07T02:34:34.117Z,4.96
2023-04-07T02:37:01.684Z,4.94
2023-04-07T02:39:28.927Z,4.89
2023-04-07T02:41:56.907Z,4.55
2023-04-07T02:44:24.082Z,4.77
2023-04-07T02:46:51.619Z,5.03
2023-04-07T02:49:18.887Z,5.14
2023-04-07T02:51:47.113Z,5.10
2023-04-07T02:54:14.357Z,5.08
2023-04-07T02:56:42.022Z,5.27
2023-04-07T02:59:09.403Z,5.18
2023-04-07T03:01:41.692Z,5.21
2023-04-07T03:04:09.414Z,4.81
2023-04-07T03:06:36.972Z,5.04
2023-04-07T03:09:09.794Z,5.29
2023-04-07T03:11:37.687Z,5.37
2023-04-07T03:14:05.016Z,5.30
2023-04-07T03:16:33.806Z,5.23
2023-04-07T03:19:06.358Z,5.20
2023-04-07T03:21:38.635Z,5.09
2023-04-07T03:24:07.122Z,5.17
2023-04-07T03:26:35.080Z,5.28
2023-04-07T03:29:04.374Z,5.32
2023-04-07T03:31:32.363Z,5.24
2023-04-07T03:33:59.535Z,5.29
2023-04-07T03:36:28.248Z,5.12
2023-04-07T03:38:58.780Z,5.07
2023-04-07T03:41:26.321Z,5.07
2023-04-07T03:43:53.720Z,5.24
2023-04-07T03:46:21.698Z,5.15
2023-04-07T03:48:49.060Z,5.15
2023-04-07T03:51:17.395Z,5.00
2023-04-07T03:53:47.300Z,5.06
2023-04-07T03:56:28.891Z,5.01
2023-04-07T03:58:58.276Z,5.09
2023-04-07T04:01:29.962Z,5.20
2023-04-07T04:04:01.100Z,4.96
2023-04-07T04:06:31.519Z,4.93
2023-04-07T04:09:09.549Z,5.19
2023-04-07T04:11:42.826Z,5.29
2023-04-07T04:14:10.026Z,5.22
2023-04-07T04:16:38.457Z,5.10
2023-04-07T04:19:14.448Z,5.08
2023-04-07T04:21:43.239Z,5.30
2023-04-07T04:24:10.876Z,5.36
2023-04-07T04:26:38.556Z,5.13
2023-04-07T04:29:11.305Z,5.21
2023-04-07T04:31:40.814Z,5.38
2023-04-07T04:34:08.753Z,5.34
2023-04-07T04:36:37.980Z,5.25
2023-04-07T04:39:06.599Z,5.33
2023-04-07T04:41:35.854Z,5.34
2023-04-07T04:44:03.627Z,5.31
2023-04-07T04:46:32.393Z,5.24
2023-04-07T04:49:00.374Z,5.36
2023-04-07T04:51:28.058Z,5.20
2023-04-07T04:54:02.810Z,5.32
2023-04-07T04:56:30.796Z,5.28
2023-04-07T04:58:58.033Z,5.46
2023-04-07T05:01:34.370Z,5.42
2023-04-07T05:04:07.249Z,5.43
2023-04-07T05:06:35.177Z,5.31
2023-04-07T05:09:07.770Z,5.51
2023-04-07T05:11:43.478Z,5.48
2023-04-07T05:14:10.926Z,5.31
2023-04-07T05:16:43.265Z,5.16
2023-04-07T05:19:16.458Z,5.42
2023-04-07T05:21:44.419Z,5.45
2023-04-07T05:24:12.642Z,5.26
2023-04-07T05:26:40.653Z,5.38
2023-04-07T05:29:08.676Z,5.50
2023-04-07T05:31:37.517Z,5.50
2023-04-07T05:34:09.129Z,5.40
2023-04-07T05:36:43.337Z,5.29
2023-04-07T05:39:10.808Z,5.59
2023-04-07T05:41:38.370Z,5.49
2023-04-07T05:44:06.676Z,5.41
2023-04-07T05:46:38.259Z,5.47
2023-04-07T05:49:18.947Z,5.63
2023-04-07T05:51:50.434Z,5.41
2023-04-07T05:54:17.631Z,5.30
2023-04-07T05:56:45.563Z,5.54
2023-04-07T05:59:12.809Z,5.57
2023-04-07T06:01:40.481Z,5.57
2023-04-07T06:04:09.157Z,5.68
2023-04-07T06:06:36.784Z,5.85
2023-04-07T06:09:05.756Z,6.02
2023-04-07T06:11:34.456Z,5.89
2023-04-07T06:14:01.631Z,5.84
2023-04-07T06:16:29.318Z,6.04
2023-04-07T06:18:56.893Z,5.71
2023-04-07T06:21:25.580Z,5.72
2023-04-07T06:23:52.850Z,5.51
2023-04-07T06:26:21.758Z,5.62
2023-04-07T06:28:49.172Z,5.55
2023-04-07T06:31:18.111Z,5.60
2023-04-07T06:33:46.063Z,5.75
2023-04-07T06:36:14.157Z,5.53
2023-04-07T06:38:41.445Z,5.96
2023-04-07T06:41:11.837Z,5.73
2023-04-07T06:43:39.023Z,5.63
2023-04-07T06:46:08.556Z,5.62
2023-04-07T06:48:35.847Z,5.85
2023-04-07T06:51:03.635Z,5.83
2023-04-07T06:53:30.954Z,5.65
2023-04-07T06:56:08.576Z,5.98
2023-04-07T06:58:37.122Z,5.66
2023-04-07T07:01:06.303Z,5.37
2023-04-07T07:03:34.085Z,5.72
2023-04-07T07:06:02.478Z,5.81
2023-04-07T07:08:30.843Z,5.84
2023-04-07T07:10:58.782Z,5.95
2023-04-07T07:13:27.394Z,5.98
2023-04-07T07:15:55.640Z,5.83
2023-04-07T07:18:22.961Z,5.63
2023-04-07T07:20:51.153Z,5.68
2023-04-07T07:23:18.411Z,6.00
2023-04-07T07:25:46.114Z,5.94
2023-04-07T07:28:13.362Z,5.77
2023-04-07T07:30:41.688Z,5.50
2023-04-07T07:33:08.953Z,5.74
2023-04-07T07:35:38.001Z,5.92
2023-04-07T07:38:05.507Z,5.74
2023-04-07T07:40:33.459Z,6.20
2023-04-07T07:43:01.080Z,6.40
2023-04-07T07:45:28.582Z,6.16
2023-04-07T07:47:56.068Z,6.09
2023-04-07T07:50:23.782Z,6.57
2023-04-07T07:52:51.051Z,6.41
2023-04-07T07:55:18.591Z,6.33
2023-04-07T07:57:45.867Z,6.21
2023-04-07T08:00:13.948Z,6.07
2023-04-07T08:02:41.377Z,6.35
2023-04-07T08:05:09.295Z,6.61
2023-04-07T08:07:36.712Z,6.29
2023-04-07T08:10:04.423Z,6.17
2023-04-07T08:12:31.659Z,6.34
2023-04-07T08:14:59.141Z,6.29
2023-04-07T08:17:26.655Z,6.50
2023-04-07T08:19:54.254Z,6.16
2023-04-07T08:22:21.485Z,6.39
2023-04-07T08:24:49.024Z,6.83
2023-04-07T08:27:16.251Z,6.90
2023-04-07T08:29:43.761Z,7.19
2023-04-07T08:32:11.280Z,7.11
2023-04-07T08:34:38.778Z,7.42
2023-04-07T08:37:06.159Z,7.74
2023-04-07T08:39:34.161Z,7.81
2023-04-07T08:42:01.648Z,7.29
2023-04-07T08:44:30.115Z,7.15
2023-04-07T08:46:59.735Z,6.93
2023-04-07T08:49:30.026Z,7.35
2023-04-07T08:52:00.208Z,7.45
2023-04-07T08:54:28.869Z,7.32
2023-04-07T08:56:56.684Z,7.39
2023-04-07T08:59:26.848Z,7.48
2023-04-07T09:01:55.214Z,7.09
2023-04-07T09:04:25.673Z,7.17
2023-04-07T09:06:53.131Z,7.56
2023-04-07T09:09:20.878Z,7.46
2023-04-07T09:11:48.656Z,7.44
2023-04-07T09:14:16.510Z,7.28
2023-04-07T09:16:43.908Z,7.30
2023-04-07T09:19:11.468Z,7.23
2023-04-07T09:21:51.799Z,7.35
2023-04-07T09:24:23.490Z,7.35
2023-04-07T09:26:51.119Z,7.21
2023-04-07T09:29:20.761Z,7.23
2023-04-07T09:31:50.572Z,7.68
2023-04-07T09:34:24.146Z,7.45
2023-04-07T09:36:51.365Z,7.24
2023-04-07T09:39:19.667Z,7.53
2023-04-07T09:41:47.476Z,7.71
2023-04-07T09:44:15.446Z,7.35
2023-04-07T09:46:56.815Z,7.87
2023-04-07T09:49:26.113Z,7.64
2023-04-07T09:51:55.158Z,7.70
2023-04-07T09:54:36.122Z,7.23
2023-04-07T09:57:08.424Z,7.44
2023-04-07T09:59:37.863Z,7.69
2023-04-07T10:02:06.280Z,7.41
2023-04-07T10:04:34.037Z,7.55
2023-04-07T10:07:03.336Z,7.67
2023-04-07T10:09:31.238Z,8.16
2023-04-07T10:11:59.965Z,8.48
2023-04-07T10:14:31.113Z,8.46
2023-04-07T10:17:01.667Z,8.69
2023-04-07T10:19:34.714Z,8.33
2023-04-07T10:22:05.536Z,8.59
2023-04-07T10:24:55.417Z,8.85
2023-04-07T10:27:31.234Z,8.66
2023-04-07T10:30:00.411Z,8.41
2023-04-07T10:32:27.668Z,8.04
2023-04-07T10:34:55.147Z,8.25
2023-04-07T10:37:23.205Z,8.79
2023-04-07T10:39:52.847Z,8.51
2023-04-07T10:42:38.790Z,9.18
2023-04-07T10:45:10.620Z,8.33
2023-04-07T10:48:00.870Z,8.55
2023-04-07T10:50:29.393Z,8.64
2023-04-07T10:53:08.246Z,8.78
2023-04-07T10:55:44.786Z,8.55
2023-04-07T10:58:34.056Z,8.72
2023-04-07T11:01:01.699Z,8.44
2023-04-07T11:03:30.851Z,8.96
2023-04-07T11:06:08.524Z,9.29
2023-04-07T11:08:45.689Z,9.49
2023-04-07T11:11:16.687Z,9.29
2023-04-07T11:13:49.405Z,9.28
2023-04-07T11:16:19.517Z,10.01
2023-04-07T11:18:49.975Z,10.03
2023-04-07T11:21:20.303Z,10.06
2023-04-07T11:23:48.662Z,10.00
2023-04-07T11:26:16.632Z,10.31
2023-04-07T11:28:49.284Z,9.65
2023-04-07T11:31:28.194Z,10.02
2023-04-07T11:33:56.935Z,10.36
2023-04-07T11:36:38.167Z,10.55
2023-04-07T11:39:05.483Z,10.17
2023-04-07T11:41:33.929Z,9.96
2023-04-07T11:44:08.558Z,10.74
2023-04-07T11:46:36.895Z,10.53
2023-04-07T11:49:13.260Z,11.38
2023-04-07T11:51:43.334Z,11.34
2023-04-07T11:54:11.293Z,11.69
2023-04-07T11:56:44.943Z,11.00
2023-04-07T11:59:25.293Z,10.96
2023-04-07T12:01:56.149Z,11.57
2023-04-07T12:04:24.615Z,11.60
2023-04-07T12:06:52.276Z,10.96
2023-04-07T12:09:29.424Z,11.44
2023-04-07T12:11:57.907Z,10.99
2023-04-07T12:14:26.391Z,10.97
2023-04-07T12:16:56.978Z,10.83
2023-04-07T12:19:27.810Z,10.92
2023-04-07T12:21:58.631Z,11.49
2023-04-07T12:24:26.437Z,11.05
2023-04-07T12:26:54.098Z,10.27
2023-04-07T12:29:21.404Z,10.55
2023-04-07T12:31:50.864Z,11.00
2023-04-07T12:34:19.072Z,10.25
2023-04-07T12:36:47.019Z,9.97
2023-04-07T12:39:17.349Z,10.22
2023-04-07T12:41:46.199Z,10.04
2023-04-07T12:44:13.450Z,10.36
2023-04-07T12:46:41.243Z,10.04
2023-04-07T12:49:08.778Z,10.54
2023-04-07T12:51:36.529Z,9.60
2023-04-07T12:54:04.446Z,9.17
2023-04-07T12:56:32.598Z,9.06
2023-04-07T12:59:00.101Z,8.34
2023-04-07T13:01:27.834Z,8.44
2023-04-07T13:03:55.389Z,8.96
2023-04-07T13:06:22.998Z,9.28
2023-04-07T13:08:50.341Z,9.20
2023-04-07T13:11:17.898Z,9.09
2023-04-07T13:13:45.433Z,9.11
2023-04-07T13:16:13.021Z,9.34
2023-04-07T13:18:40.222Z,9.38
2023-04-07T13:21:33.722Z,9.08
2023-04-07T13:23:55.232Z,9.05
2023-04-07T13:26:23.092Z,9.23
2023-04-07T13:28:50.317Z,8.94
2023-04-07T13:31:18.213Z,9.08
2023-04-07T13:33:45.558Z,9.17
2023-04-07T13:36:13.113Z,9.25
2023-04-07T13:38:42.476Z,9.13
2023-04-07T13:41:10.077Z,9.77
2023-04-07T13:43:37.300Z,10.26
2023-04-07T13:46:07.760Z,10.29
2023-04-07T13:48:39.040Z,9.58
2023-04-07T13:51:06.538Z,9.90
2023-04-07T13:53:33.717Z,9.71
2023-04-07T13:56:01.566Z,9.77
2023-04-07T13:58:30.971Z,9.56
2023-04-07T14:00:59.490Z,9.91
2023-04-07T14:03:26.802Z,9.58
2023-04-07T14:05:54.565Z,9.74
2023-04-07T14:08:23.710Z,10.03
2023-04-07T14:10:51.480Z,10.27
2023-04-07T14:13:18.743Z,10.30
2023-04-07T14:15:48.440Z,10.41
2023-04-07T14:18:15.798Z,10.21
2023-04-07T14:20:43.541Z,10.06
2023-04-07T14:23:11.528Z,10.28
2023-04-07T14:25:39.061Z,10.44
2023-04-07T14:28:06.506Z,10.29
2023-04-07T14:30:38.808Z,10.42
2023-04-07T14:33:06.067Z,10.69
2023-04-07T14:35:33.644Z,10.57
2023-04-07T14:38:00.858Z,10.68
2023-04-07T14:40:28.338Z,10.75
2023-04-07T14:45:28.616Z,10.73
2023-04-07T14:47:56.376Z,10.61
2023-04-07T14:50:24.006Z,10.52
2023-04-07T14:52:52.208Z,10.71
2023-04-07T14:55:19.988Z,10.72
2023-04-07T14:57:47.187Z,10.56
2023-04-07T15:00:15.090Z,10.64
2023-04-07T15:02:42.659Z,11.01
2023-04-07T15:05:10.542Z,10.68
2023-04-07T15:07:37.723Z,10.71
2023-04-07T15:10:05.935Z,10.80
2023-04-07T15:12:33.493Z,10.93
2023-04-07T15:15:01.070Z,11.02
2023-04-07T15:17:42.411Z,10.73
2023-04-07T15:20:13.211Z,11.01
2023-04-07T15:22:40.769Z,10.57
2023-04-07T15:25:08.860Z,10.52
2023-04-07T15:27:36.271Z,10.73
2023-04-07T15:30:04.102Z,10.72
2023-04-07T15:32:31.989Z,10.56
2023-04-07T15:34:59.672Z,10.61
2023-04-07T15:37:26.992Z,10.44
2023-04-07T15:39:54.500Z,10.68
2023-04-07T15:42:21.664Z,10.31
2023-04-07T15:44:50.872Z,10.34
2023-04-07T15:47:18.054Z,10.10
2023-04-07T15:49:45.554Z,10.23
2023-04-07T15:52:14.090Z,10.23
2023-04-07T15:54:41.596Z,10.24
2023-04-07T15:57:08.845Z,10.36
2023-04-07T15:59:36.336Z,10.35
2023-04-07T16:02:04.000Z,10.04
2023-04-07T16:04:31.557Z,10.22
2023-04-07T16:06:58.801Z,9.96
2023-04-07T16:09:26.983Z,10.16
2023-04-07T16:11:55.036Z,10.16
2023-04-07T16:14:22.612Z,10.29
2023-04-07T16:16:53.800Z,10.00
2023-04-07T16:19:21.566Z,9.92
2023-04-07T16:21:48.857Z,9.80
2023-04-07T16:24:16.340Z,9.81
2023-04-07T16:26:43.612Z,9.71
2023-04-07T16:29:11.099Z,9.76
2023-04-07T16:31:38.320Z,9.84
2023-04-07T16:34:05.921Z,9.70
2023-04-07T16:36:33.176Z,9.47
2023-04-07T16:39:00.638Z,9.51
2023-04-07T16:41:27.966Z,9.58
2023-04-07T16:43:55.958Z,9.67
2023-04-07T16:46:26.253Z,9.64
2023-04-07T16:48:54.095Z,9.62
2023-04-07T16:51:21.981Z,9.47
2023-04-07T16:53:49.670Z,9.40
2023-04-07T16:56:22.037Z,9.50
2023-04-07T16:58:50.357Z,9.54
2023-04-07T17:01:18.421Z,9.50
2023-04-07T17:03:48.923Z,9.60
2023-04-07T17:06:16.768Z,9.64
2023-04-07T17:08:44.287Z,9.72
2023-04-07T17:11:13.257Z,9.71
2023-04-07T17:13:40.900Z,9.75
2023-04-07T17:16:13.866Z,9.66
2023-04-07T17:18:41.490Z,9.61
2023-04-07T17:21:08.669Z,9.34
2023-04-07T17:23:36.235Z,9.45
2023-04-07T17:26:03.478Z,9.53
2023-04-07T17:28:31.126Z,9.48
2023-04-07T17:30:58.709Z,9.62
2023-04-07T17:33:26.310Z,9.25
2023-04-07T17:35:53.633Z,9.30
2023-04-07T17:38:21.139Z,9.26
2023-04-07T17:40:48.310Z,9.34
2023-04-07T17:43:15.885Z,9.44
2023-04-07T17:45:43.073Z,9.40
2023-04-07T17:48:12.125Z,9.41
2023-04-07T17:50:39.504Z,9.35
2023-04-07T17:53:07.803Z,9.38
2023-04-07T17:55:35.095Z,9.39
2023-04-07T17:58:02.595Z,9.43
2023-04-07T18:00:30.124Z,9.44
2023-04-07T18:02:57.794Z,9.55
2023-04-07T18:05:26.146Z,9.64
2023-04-07T18:07:54.936Z,9.61
2023-04-07T18:10:22.247Z,9.40
2023-04-07T18:12:49.792Z,9.45
2023-04-07T18:15:17.346Z,9.39
2023-04-07T18:17:44.927Z,9.44
2023-04-07T18:20:13.184Z,9.30
2023-04-07T18:22:40.980Z,9.30
2023-04-07T18:25:09.643Z,9.37
2023-04-07T18:27:37.855Z,9.22
2023-04-07T18:30:06.166Z,9.00
2023-04-07T18:32:33.753Z,9.07
2023-04-07T18:35:01.364Z,9.02
2023-04-07T18:37:29.725Z,9.14
2023-04-07T18:39:56.950Z,9.10
2023-04-07T18:42:24.554Z,9.10
2023-04-07T18:44:51.817Z,9.16
2023-04-07T18:47:19.362Z,9.20
2023-04-07T18:49:46.602Z,9.17
2023-04-07T18:52:14.217Z,9.12
2023-04-07T18:54:41.478Z,9.12
2023-04-07T18:57:09.003Z,9.08
2023-04-07T18:59:36.563Z,9.24
2023-04-07T19:02:04.158Z,9.28
2023-04-07T19:04:31.486Z,9.10
2023-04-07T19:06:59.193Z,8.96
2023-04-07T19:09:26.430Z,8.93
2023-04-07T19:11:53.933Z,9.10
2023-04-07T19:14:21.188Z,9.13
2023-04-07T19:16:48.806Z,9.04
2023-04-07T19:19:17.415Z,8.76
2023-04-07T19:21:45.029Z,8.82
2023-04-07T19:24:12.260Z,8.67
2023-04-07T19:26:39.850Z,8.68
2023-04-07T19:29:07.268Z,8.62
2023-04-07T19:31:35.385Z,8.68
2023-04-07T19:34:02.670Z,8.51
2023-04-07T19:36:31.394Z,8.46
2023-04-07T19:38:58.599Z,8.65
2023-04-07T19:41:26.194Z,8.64
2023-04-07T19:43:53.503Z,8.57
2023-04-07T19:46:21.026Z,8.40
2023-04-07T19:48:48.695Z,8.43
2023-04-07T19:51:16.779Z,8.53
2023-04-07T19:53:43.969Z,8.45
2023-04-07T19:56:12.612Z,8.41
2023-04-07T19:58:39.882Z,8.49
2023-04-07T20:01:16.189Z,8.34
2023-04-07T20:03:44.232Z,8.37
2023-04-07T20:06:14.611Z,8.65
2023-04-07T20:08:42.343Z,8.70
2023-04-07T20:11:13.065Z,8.70
2023-04-07T20:13:41.603Z,8.82
2023-04-07T20:16:09.140Z,8.64
2023-04-07T20:18:36.695Z,8.67
2023-04-07T20:21:07.619Z,8.57
2023-04-07T20:23:34.854Z,8.49
2023-04-07T20:26:02.533Z,8.47
2023-04-07T20:28:30.816Z,8.55
2023-04-07T20:30:58.478Z,8.62
2023-04-07T20:33:25.777Z,8.70
2023-04-07T20:35:53.398Z,8.85
2023-04-07T20:38:20.738Z,8.78
2023-04-07T20:40:48.330Z,8.84
2023-04-07T20:43:18.162Z,8.81
2023-04-07T20:45:47.578Z,8.66
2023-04-07T20:48:17.166Z,8.72
2023-04-07T20:50:44.912Z,8.74
2023-04-07T20:53:13.538Z,8.75
2023-04-07T20:55:41.338Z,8.66
2023-04-07T20:58:08.602Z,8.46
2023-04-07T21:00:36.731Z,8.66
2023-04-07T21:03:04.101Z,8.48
2023-04-07T21:05:31.809Z,8.74
2023-04-07T21:07:59.329Z,8.72
2023-04-07T21:10:26.866Z,8.69
2023-04-07T21:12:54.089Z,8.57
2023-04-07T21:15:21.622Z,8.65
2023-04-07T21:17:48.970Z,8.63
2023-04-07T21:20:16.664Z,8.66
2023-04-07T21:22:44.330Z,8.64
2023-04-07T21:25:12.892Z,8.58
2023-04-07T21:27:41.374Z,8.47
2023-04-07T21:30:09.310Z,8.51
2023-04-07T21:32:36.830Z,8.40
2023-04-07T21:35:04.669Z,8.46
2023-04-07T21:37:31.885Z,8.39
2023-04-07T21:39:59.413Z,8.41
2023-04-07T21:42:26.624Z,8.44
2023-04-07T21:44:54.145Z,8.41
2023-04-07T21:47:21.698Z,8.47
2023-04-07T21:49:49.255Z,8.33
2023-04-07T21:52:19.947Z,8.38
2023-04-07T21:54:47.649Z,8.51
2023-04-07T21:57:14.925Z,8.62
2023-04-07T21:59:42.483Z,8.59
2023-04-07T22:02:10.096Z,8.59
2023-04-07T22:04:38.014Z,8.51
2023-04-07T22:07:05.197Z,8.56
2023-04-07T22:09:32.749Z,8.48
2023-04-07T22:12:00.049Z,8.37
2023-04-07T22:14:27.590Z,8.41
2023-04-07T22:16:55.216Z,8.43
2023-04-07T22:19:22.833Z,8.42
2023-04-07T22:21:49.981Z,8.40
2023-04-07T22:24:17.443Z,8.50
2023-04-07T22:26:44.720Z,8.51
2023-04-07T22:29:12.252Z,8.52
2023-04-07T22:31:39.628Z,8.65
2023-04-07T22:34:08.422Z,8.62
2023-04-07T22:36:36.523Z,8.70
2023-04-07T22:39:04.123Z,8.66
2023-04-07T22:41:31.674Z,8.77
2023-04-07T22:43:59.256Z,8.80
2023-04-07T22:46:26.507Z,8.79
2023-04-07T22:48:54.296Z,8.78
2023-04-07T22:51:22.124Z,8.82
2023-04-07T22:53:49.962Z,8.75
2023-04-07T22:56:17.145Z,8.67
2023-04-07T22:58:44.611Z,8.80
2023-04-07T23:01:11.997Z,8.65
2023-04-07T23:03:39.697Z,8.72
2023-04-07T23:06:06.975Z,9.04
2023-04-07T23:08:34.477Z,8.49
2023-04-07T23:11:02.012Z,8.65
2023-04-07T23:13:29.661Z,8.75
2023-04-07T23:15:58.169Z,8.72
2023-04-07T23:18:25.871Z,8.81
2023-04-07T23:20:53.247Z,8.75
2023-04-07T23:23:20.801Z,8.85
2023-04-07T23:25:48.050Z,8.84
2023-04-07T23:28:15.603Z,8.70
2023-04-07T23:30:42.878Z,8.69
2023-04-07T23:33:10.408Z,8.67
2023-04-07T23:35:37.645Z,8.67
2023-04-07T23:38:05.748Z,8.67
2023-04-07T23:40:32.978Z,8.59
2023-04-07T23:43:00.609Z,8.52
2023-04-07T23:45:27.985Z,8.53
2023-04-07T23:47:55.701Z,8.41
2023-04-07T23:50:23.118Z,8.43
2023-04-07T23:52:50.968Z,8.57
2023-04-07T23:55:18.245Z,8.62
2023-04-07T23:57:45.858Z,8.56
